Accueil
METAR-TAF:

METAR-TAF

Aéroports :

Aéroport de Vannes

Vannes, France

latitude: 47-43-19N, longitude: 2-43-41W, altitude: 130 m

Observation

Le bulletin a été fait il y a 17 minutes, à 15:00 UTC
Vent 10 kt de ouest/nord-ouest, variant entre ouest et nord/nord-ouest
Température 7°C
Humidité 70%
Pression 1001 hPa
Visibilité 10 km ou plus

METAR: LFRV 241500Z AUTO 30010KT 260V330 9999 FEW029/// SCT035/// BKN100/// ///TCU 07/02 Q1001

Heure: 16:17 (15:17 UTC)


TAF: absent

Observations et prévisions météorologiques de plus de 4000 aéroports (messages METAR et TAF).

Les stations disponibles sont représentées par des disques jaunes et rouges sur la carte.

Passer la souris dessus pour voir le nom de la station.

Cliquer dessus pour voir les observations et prévisions météorologiques.

Pour changer de carte: cliquez sur les boutons verts avec une croix noire pour zoomer, sur le bouton vert avec un tiret pour effectuer un zoom arrière, ou sur les flèches vertes pour les cartes adjacentes.


METAR-TAF: